createdAt,value
2019-01-29T00:00:26.156Z,99.90
2019-01-29T00:05:23.401Z,99.90
2019-01-29T00:07:51.943Z,99.90
2019-01-29T00:10:20.635Z,99.90
2019-01-29T00:12:49.151Z,99.90
2019-01-29T00:15:18.873Z,99.90
2019-01-29T00:17:47.394Z,99.90
2019-01-29T00:20:16.209Z,99.90
2019-01-29T00:22:45.035Z,99.90
2019-01-29T00:27:42.364Z,99.90
2019-01-29T00:30:11.266Z,99.90
2019-01-29T00:35:08.213Z,99.90
2019-01-29T00:37:36.989Z,99.90
2019-01-29T00:40:06.325Z,99.90
2019-01-29T00:45:04.019Z,99.90
2019-01-29T00:47:32.585Z,99.90
2019-01-29T00:50:01.166Z,99.90
2019-01-29T00:52:29.695Z,99.90
2019-01-29T00:54:58.257Z,99.90
2019-01-29T00:57:28.216Z,99.90
2019-01-29T00:59:56.685Z,99.90
2019-01-29T01:02:25.492Z,99.90
2019-01-29T01:04:54.009Z,99.90
2019-01-29T01:07:22.567Z,99.90
2019-01-29T01:09:57.134Z,99.90
2019-01-29T01:12:21.857Z,99.90
2019-01-29T01:14:50.555Z,99.90
2019-01-29T01:19:47.295Z,99.90
2019-01-29T01:22:15.746Z,99.90
2019-01-29T01:24:45.295Z,99.90
2019-01-29T01:27:13.993Z,99.90
2019-01-29T01:29:42.509Z,99.90
2019-01-29T01:32:10.947Z,99.90
2019-01-29T01:34:39.491Z,99.90
2019-01-29T01:37:08.062Z,99.90
2019-01-29T01:39:36.712Z,99.90
2019-01-29T01:42:05.375Z,99.90
2019-01-29T01:44:34.064Z,99.90
2019-01-29T01:49:31.288Z,99.90
2019-01-29T01:51:59.817Z,99.90
2019-01-29T01:54:28.437Z,99.90
2019-01-29T01:56:57.036Z,99.90
2019-01-29T01:59:25.525Z,99.90
2019-01-29T02:04:22.678Z,99.90
2019-01-29T02:06:51.281Z,99.90
2019-01-29T02:09:19.902Z,99.90
2019-01-29T02:11:48.471Z,99.90
2019-01-29T02:14:17.212Z,99.90
2019-01-29T02:16:45.850Z,99.90
2019-01-29T02:21:42.942Z,99.90
2019-01-29T02:24:11.735Z,99.90
2019-01-29T02:29:08.728Z,99.90
2019-01-29T02:31:37.361Z,99.90
2019-01-29T02:34:06.058Z,99.90
2019-01-29T02:36:34.699Z,99.90
2019-01-29T02:39:05.440Z,99.90
2019-01-29T02:41:35.214Z,99.90
2019-01-29T02:44:03.954Z,99.90
2019-01-29T02:53:57.702Z,99.90
2019-01-29T02:56:26.275Z,99.90
2019-01-29T02:58:54.904Z,99.90
2019-01-29T03:01:23.626Z,99.90
2019-01-29T03:03:53.334Z,99.90
2019-01-29T03:06:22.111Z,99.90
2019-01-29T03:08:50.745Z,99.90
2019-01-29T03:11:19.516Z,99.90
2019-01-29T03:13:48.166Z,99.90
2019-01-29T03:16:17.561Z,99.90
2019-01-29T03:18:46.364Z,99.90
2019-01-29T03:21:14.942Z,99.90
2019-01-29T03:23:43.527Z,99.90
2019-01-29T03:26:13.020Z,99.90
2019-01-29T03:28:41.595Z,99.90
2019-01-29T03:31:10.351Z,99.90
2019-01-29T03:33:38.728Z,99.90
2019-01-29T03:36:07.575Z,99.90
2019-01-29T03:38:36.197Z,99.90
2019-01-29T03:41:04.943Z,99.90
2019-01-29T03:43:33.469Z,99.90
2019-01-29T03:46:02.122Z,99.90
2019-01-29T03:48:30.758Z,99.90
2019-01-29T04:00:54.360Z,99.90
2019-01-29T04:03:22.718Z,99.90
2019-01-29T04:05:51.328Z,99.90
2019-01-29T04:08:19.984Z,99.90
2019-01-29T04:10:48.583Z,99.90
2019-01-29T04:13:17.239Z,99.90
2019-01-29T04:18:14.280Z,99.90
2019-01-29T04:20:42.729Z,99.90
2019-01-29T04:23:11.396Z,99.90
2019-01-29T04:25:40.023Z,99.90
2019-01-29T04:28:08.662Z,99.90
2019-01-29T04:30:37.101Z,99.90
2019-01-29T04:35:34.229Z,99.90
2019-01-29T04:38:02.811Z,99.90
2019-01-29T04:40:31.431Z,99.90
2019-01-29T04:43:00.005Z,99.90
2019-01-29T04:45:28.776Z,99.90
2019-01-29T04:47:57.400Z,99.90
2019-01-29T04:52:54.313Z,99.90
2019-01-29T04:55:23.015Z,99.90
2019-01-29T04:57:52.626Z,99.90
2019-01-29T05:02:53.301Z,99.90
2019-01-29T05:05:22.070Z,99.90
2019-01-29T05:10:19.692Z,99.90
2019-01-29T05:12:54.121Z,99.90
2019-01-29T05:15:22.643Z,99.90
2019-01-29T05:17:51.318Z,99.90
2019-01-29T05:20:21.576Z,99.90
2019-01-29T05:22:50.344Z,99.90
2019-01-29T05:25:19.732Z,99.90
2019-01-29T05:27:48.573Z,99.90
2019-01-29T05:30:20.714Z,99.90
2019-01-29T05:32:49.778Z,99.90
2019-01-29T05:37:49.455Z,99.90
2019-01-29T05:40:19.676Z,99.90
2019-01-29T05:42:48.748Z,99.90
2019-01-29T05:45:18.651Z,99.90
2019-01-29T05:47:47.459Z,99.90
2019-01-29T05:52:44.549Z,99.90
2019-01-29T05:55:13.873Z,99.90
2019-01-29T05:57:42.576Z,99.90
2019-01-29T06:05:13.499Z,99.90
2019-01-29T06:07:42.161Z,99.90
2019-01-29T06:12:39.578Z,99.90
2019-01-29T06:15:11.497Z,99.90
2019-01-29T06:17:40.102Z,99.90
2019-01-29T06:20:12.483Z,99.90
2019-01-29T06:25:09.709Z,99.90
2019-01-29T06:30:09.606Z,99.90
2019-01-29T06:32:38.295Z,99.90
2019-01-29T06:35:09.365Z,99.90
2019-01-29T06:37:37.990Z,99.90
2019-01-29T06:40:08.040Z,99.90
2019-01-29T06:42:36.545Z,99.90
2019-01-29T06:45:07.425Z,99.90
2019-01-29T06:50:06.144Z,99.90
2019-01-29T06:55:03.158Z,99.90
2019-01-29T06:57:31.761Z,99.90
2019-01-29T07:00:00.270Z,99.90
2019-01-29T07:02:28.987Z,99.90
2019-01-29T07:04:57.838Z,99.90
2019-01-29T07:07:26.470Z,99.90
2019-01-29T07:09:55.355Z,99.90
2019-01-29T07:12:23.740Z,99.90
2019-01-29T07:14:52.265Z,99.90
2019-01-29T07:20:11.498Z,99.90
2019-01-29T07:25:09.511Z,99.90
2019-01-29T07:27:38.211Z,99.90
2019-01-29T07:30:08.796Z,99.90
2019-01-29T07:32:38.454Z,99.90
2019-01-29T07:35:07.877Z,99.90
2019-01-29T07:37:36.428Z,99.90
2019-01-29T07:40:05.876Z,99.90
2019-01-29T07:42:34.576Z,99.90
2019-01-29T07:45:04.190Z,99.90
2019-01-29T07:47:34.073Z,99.90
2019-01-29T07:50:02.716Z,99.90
2019-01-29T07:54:59.476Z,99.90
2019-01-29T07:59:56.175Z,99.90
2019-01-29T08:02:24.863Z,99.90
2019-01-29T08:04:53.423Z,99.90
2019-01-29T08:07:22.017Z,99.90
2019-01-29T08:09:50.432Z,99.90
2019-01-29T08:12:18.845Z,99.90
2019-01-29T08:14:47.520Z,99.90
2019-01-29T08:17:16.097Z,99.90
2019-01-29T08:19:44.653Z,99.90
2019-01-29T08:22:13.112Z,99.90
2019-01-29T08:24:41.719Z,99.90
2019-01-29T08:29:38.719Z,99.90
2019-01-29T08:32:08.418Z,99.90
2019-01-29T08:34:36.975Z,99.90
2019-01-29T08:37:05.516Z,99.90
2019-01-29T08:42:02.322Z,99.90
2019-01-29T08:44:31.005Z,99.90
2019-01-29T08:46:59.756Z,99.90
2019-01-29T08:49:28.495Z,99.90
2019-01-29T08:51:57.026Z,99.90
2019-01-29T08:54:25.406Z,99.80
2019-01-29T08:56:54.008Z,99.70
2019-01-29T08:59:22.583Z,99.60
2019-01-29T09:01:51.249Z,99.30
2019-01-29T09:04:20.053Z,99.40
2019-01-29T09:06:48.682Z,99.30
2019-01-29T09:09:17.469Z,99.30
2019-01-29T09:11:46.038Z,99.10
2019-01-29T09:14:14.691Z,99.00
2019-01-29T09:16:43.146Z,98.60
2019-01-29T09:19:11.797Z,99.00
2019-01-29T09:21:40.394Z,98.90
2019-01-29T09:24:09.025Z,98.80
2019-01-29T09:26:37.547Z,98.50
2019-01-29T09:29:07.194Z,98.50
2019-01-29T09:31:36.011Z,98.50
2019-01-29T09:34:04.817Z,97.60
2019-01-29T09:36:34.073Z,97.10
2019-01-29T09:39:04.905Z,97.60
2019-01-29T09:41:33.775Z,97.30
2019-01-29T09:44:02.770Z,97.40
2019-01-29T09:46:31.582Z,97.20
2019-01-29T09:49:00.194Z,97.20
2019-01-29T09:51:28.822Z,97.30
2019-01-29T09:53:57.752Z,97.40
2019-01-29T09:56:27.408Z,97.20
2019-01-29T09:58:56.189Z,96.70
2019-01-29T10:01:24.881Z,97.00
2019-01-29T10:03:53.446Z,97.00
2019-01-29T10:06:22.095Z,97.00
2019-01-29T10:08:50.528Z,97.40
2019-01-29T10:11:19.297Z,97.10
2019-01-29T10:13:48.006Z,96.90
2019-01-29T10:16:16.776Z,97.00
2019-01-29T10:21:13.708Z,97.10
2019-01-29T10:23:42.589Z,97.20
2019-01-29T10:26:11.094Z,97.10
2019-01-29T10:28:39.952Z,96.80
2019-01-29T10:31:08.633Z,96.90
2019-01-29T10:33:37.279Z,97.00
2019-01-29T10:36:06.105Z,96.30
2019-01-29T10:38:34.746Z,96.70
2019-01-29T10:41:03.660Z,96.80
2019-01-29T10:43:32.449Z,96.10
2019-01-29T10:46:00.845Z,96.50
2019-01-29T10:48:29.683Z,96.30
2019-01-29T10:50:58.538Z,96.10
2019-01-29T10:53:27.227Z,96.20
2019-01-29T10:55:55.660Z,96.00
2019-01-29T10:58:24.421Z,95.90
2019-01-29T11:00:53.137Z,95.90
2019-01-29T11:03:21.921Z,95.80
2019-01-29T11:05:50.582Z,96.00
2019-01-29T11:08:19.165Z,96.10
2019-01-29T11:10:47.958Z,96.00
2019-01-29T11:13:16.615Z,95.60
2019-01-29T11:15:45.391Z,95.70
2019-01-29T11:18:15.459Z,95.50
2019-01-29T11:20:44.216Z,95.30
2019-01-29T11:23:13.034Z,95.70
2019-01-29T11:25:42.038Z,95.40
2019-01-29T11:28:10.802Z,95.20
2019-01-29T11:30:41.291Z,95.20
2019-01-29T11:33:10.214Z,95.40
2019-01-29T11:35:40.550Z,95.20
2019-01-29T11:38:09.400Z,94.60
2019-01-29T11:40:38.143Z,95.00
2019-01-29T11:43:07.266Z,95.40
2019-01-29T11:45:42.016Z,95.00
2019-01-29T11:48:10.450Z,95.00
2019-01-29T11:50:39.278Z,94.90
2019-01-29T11:53:08.101Z,94.80
2019-01-29T11:55:36.780Z,94.40
2019-01-29T11:58:06.135Z,94.20
2019-01-29T12:01:00.632Z,94.60
2019-01-29T12:03:29.239Z,95.10
2019-01-29T12:05:58.855Z,94.50
2019-01-29T12:08:27.534Z,94.40
2019-01-29T12:10:56.275Z,94.40
2019-01-29T12:13:24.922Z,94.80
2019-01-29T12:15:53.365Z,93.60
2019-01-29T12:18:23.054Z,93.90
2019-01-29T12:20:51.592Z,93.80
2019-01-29T12:23:21.485Z,93.60
2019-01-29T12:25:50.117Z,93.00
2019-01-29T12:28:18.806Z,93.40
2019-01-29T12:30:48.416Z,93.20
2019-01-29T12:33:18.141Z,93.30
2019-01-29T12:35:46.722Z,93.70
2019-01-29T12:38:15.355Z,93.90
2019-01-29T12:40:44.119Z,92.60
2019-01-29T12:43:12.713Z,93.00
2019-01-29T12:45:41.556Z,92.60
2019-01-29T12:48:10.306Z,92.70
2019-01-29T12:50:41.236Z,92.80
2019-01-29T12:53:12.244Z,92.30
2019-01-29T12:55:40.942Z,92.30
2019-01-29T12:58:09.487Z,92.40
2019-01-29T13:00:57.643Z,91.90
2019-01-29T13:03:26.368Z,91.70
2019-01-29T13:05:54.961Z,91.80
2019-01-29T13:08:23.671Z,92.70
2019-01-29T13:10:52.356Z,91.90
2019-01-29T13:13:21.155Z,91.70
2019-01-29T13:15:49.894Z,91.40
2019-01-29T13:18:20.272Z,91.60
2019-01-29T13:20:50.049Z,91.80
2019-01-29T13:23:20.516Z,92.10
2019-01-29T13:25:49.424Z,92.00
2019-01-29T13:28:18.137Z,91.90
2019-01-29T13:30:46.752Z,91.80
2019-01-29T13:33:15.504Z,92.10
2019-01-29T13:35:44.440Z,91.80
2019-01-29T13:38:13.178Z,91.20
2019-01-29T13:40:41.825Z,91.10
2019-01-29T13:43:10.696Z,89.20
2019-01-29T13:45:39.572Z,88.90
2019-01-29T13:48:08.270Z,90.20
2019-01-29T13:50:41.253Z,90.90
2019-01-29T13:53:09.954Z,90.50
2019-01-29T13:55:38.796Z,91.00
2019-01-29T13:58:08.371Z,90.50
2019-01-29T14:00:37.750Z,90.00
2019-01-29T14:03:07.379Z,89.30
2019-01-29T14:05:36.046Z,86.40
2019-01-29T14:08:06.100Z,86.10
2019-01-29T14:10:34.854Z,84.60
2019-01-29T14:13:03.637Z,87.80
2019-01-29T14:15:37.670Z,84.60
2019-01-29T14:18:06.379Z,85.70
2019-01-29T14:20:35.113Z,85.70
2019-01-29T14:23:05.357Z,87.50
2019-01-29T14:25:34.133Z,88.00
2019-01-29T14:28:02.681Z,88.00
2019-01-29T14:30:31.470Z,87.00
2019-01-29T14:33:00.117Z,83.60
2019-01-29T14:35:28.856Z,82.50
2019-01-29T14:38:39.765Z,85.80
2019-01-29T14:41:08.379Z,88.50
2019-01-29T14:43:37.707Z,82.80
2019-01-29T14:46:06.599Z,87.50
2019-01-29T14:48:35.319Z,86.10
2019-01-29T14:51:04.308Z,86.00
2019-01-29T14:53:33.167Z,89.00
2019-01-29T14:56:01.930Z,87.50
2019-01-29T14:58:30.805Z,89.00
2019-01-29T15:00:59.689Z,88.90
2019-01-29T15:03:28.313Z,88.60
2019-01-29T15:05:56.973Z,89.50
2019-01-29T15:08:27.166Z,91.10
2019-01-29T15:10:55.725Z,89.60
2019-01-29T15:13:25.314Z,90.70
2019-01-29T15:15:57.657Z,91.20
2019-01-29T15:18:32.625Z,91.30
2019-01-29T15:21:01.371Z,91.10
2019-01-29T15:23:31.748Z,90.90
2019-01-29T15:26:00.405Z,90.90
2019-01-29T15:28:30.213Z,92.10
2019-01-29T15:30:58.975Z,92.10
2019-01-29T15:33:28.126Z,92.60
2019-01-29T15:35:58.053Z,92.90
2019-01-29T15:38:26.650Z,93.10
2019-01-29T15:40:55.533Z,93.40
2019-01-29T15:43:24.842Z,93.80
2019-01-29T15:45:54.660Z,93.80
2019-01-29T15:48:23.583Z,94.20
2019-01-29T15:50:52.517Z,94.60
2019-01-29T15:53:21.156Z,94.90
2019-01-29T15:55:51.262Z,95.30
2019-01-29T15:58:21.227Z,95.40
2019-01-29T16:00:49.938Z,95.70
2019-01-29T16:03:20.763Z,95.80
2019-01-29T16:05:49.609Z,95.90
2019-01-29T16:08:18.374Z,95.90
2019-01-29T16:10:47.484Z,96.10
2019-01-29T16:13:16.122Z,96.30
2019-01-29T16:15:44.827Z,96.30
2019-01-29T16:18:13.819Z,96.40
2019-01-29T16:20:45.740Z,96.30
2019-01-29T16:23:14.455Z,96.50
2019-01-29T16:25:43.130Z,96.70
2019-01-29T16:28:11.658Z,97.00
2019-01-29T16:30:40.447Z,96.50
2019-01-29T16:33:09.138Z,96.40
2019-01-29T16:35:39.390Z,96.40
2019-01-29T16:38:09.024Z,96.60
2019-01-29T16:40:38.025Z,96.80
2019-01-29T16:43:06.781Z,96.90
2019-01-29T16:45:35.601Z,97.20
2019-01-29T16:48:05.281Z,97.30
2019-01-29T16:50:33.894Z,97.30
2019-01-29T16:53:02.532Z,97.50
2019-01-29T16:55:31.816Z,97.60
2019-01-29T16:58:00.568Z,97.60
2019-01-29T17:00:30.325Z,97.60
2019-01-29T17:02:59.113Z,97.60
2019-01-29T17:05:27.878Z,97.50
2019-01-29T17:07:56.762Z,97.70
2019-01-29T17:10:25.593Z,97.70
2019-01-29T17:15:24.925Z,97.90
2019-01-29T17:17:53.600Z,98.20
2019-01-29T17:20:24.793Z,98.20
2019-01-29T17:22:53.807Z,98.20
2019-01-29T17:25:22.367Z,98.30
2019-01-29T17:27:50.900Z,98.30
2019-01-29T17:30:28.714Z,98.20
2019-01-29T17:32:57.168Z,98.20
2019-01-29T17:35:25.954Z,98.20
2019-01-29T17:37:54.843Z,98.40
2019-01-29T17:42:52.343Z,98.20
2019-01-29T17:45:26.519Z,98.40
2019-01-29T17:47:55.173Z,98.40
2019-01-29T17:50:26.195Z,98.40
2019-01-29T17:52:54.900Z,98.60
2019-01-29T17:55:23.681Z,98.30
2019-01-29T17:57:52.348Z,98.60
2019-01-29T18:00:24.642Z,98.60
2019-01-29T18:02:53.419Z,98.60
2019-01-29T18:05:22.051Z,98.60
2019-01-29T18:10:20.509Z,98.70
2019-01-29T18:12:49.182Z,98.60
2019-01-29T18:15:19.985Z,98.30
2019-01-29T18:20:17.223Z,98.60
2019-01-29T18:22:45.870Z,98.80
2019-01-29T18:25:19.995Z,98.90
2019-01-29T18:27:48.633Z,99.20
2019-01-29T18:30:19.747Z,99.30
2019-01-29T18:32:48.141Z,99.50
2019-01-29T18:35:16.835Z,99.70
2019-01-29T18:37:46.406Z,99.80
2019-01-29T18:40:41.826Z,99.70
2019-01-29T18:43:10.612Z,99.40
2019-01-29T18:48:07.933Z,99.50
2019-01-29T18:50:36.594Z,99.60
2019-01-29T18:53:05.335Z,99.60
2019-01-29T18:55:33.858Z,99.40
2019-01-29T18:58:11.473Z,99.60
2019-01-29T19:00:32.890Z,99.40
2019-01-29T19:03:01.561Z,99.40
2019-01-29T19:05:30.200Z,99.30
2019-01-29T19:07:58.914Z,99.20
2019-01-29T19:10:29.631Z,99.10
2019-01-29T19:12:58.186Z,99.20
2019-01-29T19:17:55.041Z,99.20
2019-01-29T19:22:52.471Z,99.30
2019-01-29T19:25:21.356Z,99.40
2019-01-29T19:27:50.253Z,99.60
2019-01-29T19:30:27.343Z,99.80
2019-01-29T19:32:56.121Z,99.80
2019-01-29T19:35:24.794Z,99.80
2019-01-29T19:37:55.570Z,99.80
2019-01-29T19:40:24.220Z,99.80
2019-01-29T19:42:53.232Z,99.90
2019-01-29T19:50:21.903Z,99.90
2019-01-29T19:52:51.678Z,99.90
2019-01-29T19:55:21.764Z,99.90
2019-01-29T19:57:50.562Z,99.90
2019-01-29T20:02:50.242Z,99.90
2019-01-29T20:05:18.988Z,99.90
2019-01-29T20:07:47.543Z,99.80
2019-01-29T20:12:44.889Z,99.90
2019-01-29T20:15:15.003Z,99.90
2019-01-29T20:17:43.653Z,99.90
2019-01-29T20:20:15.670Z,99.70
2019-01-29T20:22:44.362Z,99.60
2019-01-29T20:25:32.220Z,99.40
2019-01-29T20:30:31.304Z,99.60
2019-01-29T20:35:28.664Z,99.70
2019-01-29T20:37:58.419Z,99.80
2019-01-29T20:40:27.106Z,99.80
2019-01-29T20:42:55.800Z,99.50
2019-01-29T20:45:24.945Z,99.30
2019-01-29T20:47:54.554Z,99.40
2019-01-29T20:50:25.898Z,99.30
2019-01-29T20:52:54.586Z,99.30
2019-01-29T20:55:23.336Z,99.30
2019-01-29T20:57:51.875Z,99.20
2019-01-29T21:00:23.241Z,99.00
2019-01-29T21:02:51.868Z,98.90
2019-01-29T21:05:20.531Z,98.90
2019-01-29T21:07:49.267Z,99.00
2019-01-29T21:10:19.187Z,98.80
2019-01-29T21:12:47.922Z,98.90
2019-01-29T21:15:17.615Z,98.90
2019-01-29T21:20:16.609Z,99.00
2019-01-29T21:22:45.269Z,99.20
2019-01-29T21:25:14.425Z,99.00
2019-01-29T21:27:43.077Z,99.10
2019-01-29T21:30:18.120Z,99.00
2019-01-29T21:32:46.629Z,98.70
2019-01-29T21:35:15.395Z,98.90
2019-01-29T21:37:44.001Z,98.90
2019-01-29T21:42:40.928Z,98.80
2019-01-29T21:45:10.786Z,98.70
2019-01-29T21:47:39.278Z,98.60
2019-01-29T21:50:12.352Z,98.70
2019-01-29T21:52:40.752Z,98.90
2019-01-29T21:55:09.869Z,98.70
2019-01-29T21:57:38.615Z,98.60
2019-01-29T22:00:11.746Z,98.40
2019-01-29T22:02:40.342Z,98.60
2019-01-29T22:07:38.348Z,98.70
2019-01-29T22:10:08.040Z,98.70
2019-01-29T22:12:36.618Z,98.80
2019-01-29T22:15:07.580Z,98.70
2019-01-29T22:17:36.205Z,98.70
2019-01-29T22:20:06.271Z,98.60
2019-01-29T22:22:34.791Z,98.60
2019-01-29T22:25:04.194Z,98.60
2019-01-29T22:27:32.634Z,98.70
2019-01-29T22:30:01.226Z,98.60
2019-01-29T22:32:29.867Z,98.80
2019-01-29T22:39:56.275Z,98.90
2019-01-29T22:42:24.873Z,99.00
2019-01-29T22:44:53.516Z,99.10
2019-01-29T22:47:21.887Z,99.10
2019-01-29T22:49:50.544Z,98.90
2019-01-29T22:52:18.885Z,98.70
2019-01-29T22:54:47.360Z,98.70
2019-01-29T22:57:15.949Z,98.60
2019-01-29T22:59:44.495Z,98.70
2019-01-29T23:02:13.123Z,98.40
2019-01-29T23:04:44.805Z,98.30
2019-01-29T23:07:34.367Z,98.20
2019-01-29T23:10:04.351Z,98.30
2019-01-29T23:12:32.902Z,98.50
2019-01-29T23:15:02.656Z,98.70
2019-01-29T23:17:31.052Z,98.80
2019-01-29T23:19:59.511Z,98.90
2019-01-29T23:22:27.977Z,98.90
2019-01-29T23:24:56.518Z,98.30
2019-01-29T23:27:25.266Z,98.50
2019-01-29T23:29:53.823Z,98.80
2019-01-29T23:32:22.666Z,98.90
2019-01-29T23:37:19.308Z,98.70
2019-01-29T23:39:47.811Z,98.60
2019-01-29T23:44:44.588Z,98.80
2019-01-29T23:47:13.215Z,98.70
2019-01-29T23:49:41.918Z,98.70
2019-01-29T23:52:10.468Z,98.60
2019-01-29T23:54:38.984Z,98.50
2019-01-29T23:57:07.683Z,98.80
